sensor_id;sensor_type;location;lat;lon;timestamp;temperature;humidity
29341;DHT22;16337;59.536;13.468;2022-12-20T00:00:26;0.30;99.90
29341;DHT22;16337;59.536;13.468;2022-12-20T00:02:52;0.30;99.90
29341;DHT22;16337;59.536;13.468;2022-12-20T00:05:18;0.30;99.90
29341;DHT22;16337;59.536;13.468;2022-12-20T00:07:43;0.30;99.90
29341;DHT22;16337;59.536;13.468;2022-12-20T00:10:09;0.30;99.90
29341;DHT22;16337;59.536;13.468;2022-12-20T00:12:35;0.30;99.90
29341;DHT22;16337;59.536;13.468;2022-12-20T00:15:01;0.30;99.90
29341;DHT22;16337;59.536;13.468;2022-12-20T00:17:27;0.30;99.90
29341;DHT22;16337;59.536;13.468;2022-12-20T00:19:52;0.40;99.90
29341;DHT22;16337;59.536;13.468;2022-12-20T00:22:18;0.40;99.90
29341;DHT22;16337;59.536;13.468;2022-12-20T00:24:44;0.40;99.90
29341;DHT22;16337;59.536;13.468;2022-12-20T00:27:09;0.40;99.90
29341;DHT22;16337;59.536;13.468;2022-12-20T00:29:35;0.40;99.90
29341;DHT22;16337;59.536;13.468;2022-12-20T00:32:00;0.40;99.90
29341;DHT22;16337;59.536;13.468;2022-12-20T00:34:26;0.40;99.90
29341;DHT22;16337;59.536;13.468;2022-12-20T00:36:52;0.40;99.90
29341;DHT22;16337;59.536;13.468;2022-12-20T00:39:17;0.40;99.90
29341;DHT22;16337;59.536;13.468;2022-12-20T00:41:43;0.40;99.90
29341;DHT22;16337;59.536;13.468;2022-12-20T00:44:09;0.40;99.90
29341;DHT22;16337;59.536;13.468;2022-12-20T00:46:35;0.40;99.90
29341;DHT22;16337;59.536;13.468;2022-12-20T00:49:01;0.40;99.90
29341;DHT22;16337;59.536;13.468;2022-12-20T00:51:28;0.40;99.90
29341;DHT22;16337;59.536;13.468;2022-12-20T00:53:54;0.40;99.90
29341;DHT22;16337;59.536;13.468;2022-12-20T00:56:21;0.40;99.90
29341;DHT22;16337;59.536;13.468;2022-12-20T00:58:46;0.40;99.90
29341;DHT22;16337;59.536;13.468;2022-12-20T01:01:23;0.40;99.90
29341;DHT22;16337;59.536;13.468;2022-12-20T01:03:50;0.40;99.90
29341;DHT22;16337;59.536;13.468;2022-12-20T01:06:17;0.40;99.90
29341;DHT22;16337;59.536;13.468;2022-12-20T01:08:43;0.50;99.90
29341;DHT22;16337;59.536;13.468;2022-12-20T01:11:18;0.50;99.90
29341;DHT22;16337;59.536;13.468;2022-12-20T01:13:47;0.50;99.90
29341;DHT22;16337;59.536;13.468;2022-12-20T01:18:45;0.50;99.90
29341;DHT22;16337;59.536;13.468;2022-12-20T01:21:12;0.40;99.90
29341;DHT22;16337;59.536;13.468;2022-12-20T01:23:39;0.40;99.90
29341;DHT22;16337;59.536;13.468;2022-12-20T01:26:07;0.40;99.90
29341;DHT22;16337;59.536;13.468;2022-12-20T01:28:35;0.40;99.90
29341;DHT22;16337;59.536;13.468;2022-12-20T01:31:01;0.40;99.90
29341;DHT22;16337;59.536;13.468;2022-12-20T01:33:27;0.40;99.90
29341;DHT22;16337;59.536;13.468;2022-12-20T01:36:04;0.40;99.90
29341;DHT22;16337;59.536;13.468;2022-12-20T01:38:30;0.40;99.90
29341;DHT22;16337;59.536;13.468;2022-12-20T01:40:57;0.40;99.90
29341;DHT22;16337;59.536;13.468;2022-12-20T01:43:24;0.40;99.90
29341;DHT22;16337;59.536;13.468;2022-12-20T01:45:53;0.40;99.90
29341;DHT22;16337;59.536;13.468;2022-12-20T01:48:22;0.40;99.90
29341;DHT22;16337;59.536;13.468;2022-12-20T01:50:49;0.40;99.90
29341;DHT22;16337;59.536;13.468;2022-12-20T01:53:17;0.40;99.90
29341;DHT22;16337;59.536;13.468;2022-12-20T01:55:46;0.50;99.90
29341;DHT22;16337;59.536;13.468;2022-12-20T01:58:13;0.50;99.90
29341;DHT22;16337;59.536;13.468;2022-12-20T02:00:40;0.50;99.90
29341;DHT22;16337;59.536;13.468;2022-12-20T02:03:09;0.50;99.90
29341;DHT22;16337;59.536;13.468;2022-12-20T02:05:41;0.50;99.90
29341;DHT22;16337;59.536;13.468;2022-12-20T02:08:09;0.50;99.90
29341;DHT22;16337;59.536;13.468;2022-12-20T02:10:59;0.50;99.90
29341;DHT22;16337;59.536;13.468;2022-12-20T02:13:36;0.50;99.90
29341;DHT22;16337;59.536;13.468;2022-12-20T02:16:03;0.50;99.90
29341;DHT22;16337;59.536;13.468;2022-12-20T02:27:41;0.60;99.90
29341;DHT22;16337;59.536;13.468;2022-12-20T02:30:11;0.60;99.90
29341;DHT22;16337;59.536;13.468;2022-12-20T02:35:14;0.60;99.90
29341;DHT22;16337;59.536;13.468;2022-12-20T02:37:51;0.60;99.90
29341;DHT22;16337;59.536;13.468;2022-12-20T02:40:22;0.60;99.90
29341;DHT22;16337;59.536;13.468;2022-12-20T02:42:52;0.60;99.90
29341;DHT22;16337;59.536;13.468;2022-12-20T02:45:22;0.60;99.90
29341;DHT22;16337;59.536;13.468;2022-12-20T02:50:34;0.50;99.90
29341;DHT22;16337;59.536;13.468;2022-12-20T02:53:02;0.50;99.90
29341;DHT22;16337;59.536;13.468;2022-12-20T02:56:11;0.50;99.90
29341;DHT22;16337;59.536;13.468;2022-12-20T02:58:40;0.50;99.90
29341;DHT22;16337;59.536;13.468;2022-12-20T03:01:13;0.50;99.90
29341;DHT22;16337;59.536;13.468;2022-12-20T03:03:41;0.50;99.90
29341;DHT22;16337;59.536;13.468;2022-12-20T03:06:07;0.50;99.90
29341;DHT22;16337;59.536;13.468;2022-12-20T03:08:33;0.60;99.90
29341;DHT22;16337;59.536;13.468;2022-12-20T03:10:58;0.50;99.90
29341;DHT22;16337;59.536;13.468;2022-12-20T03:13:24;0.60;99.90
29341;DHT22;16337;59.536;13.468;2022-12-20T03:15:51;0.50;99.90
29341;DHT22;16337;59.536;13.468;2022-12-20T03:18:16;0.50;99.90
29341;DHT22;16337;59.536;13.468;2022-12-20T03:20:42;0.50;99.90
29341;DHT22;16337;59.536;13.468;2022-12-20T03:23:08;0.50;99.90
29341;DHT22;16337;59.536;13.468;2022-12-20T03:25:34;0.50;99.90
29341;DHT22;16337;59.536;13.468;2022-12-20T03:28:00;0.50;99.90
29341;DHT22;16337;59.536;13.468;2022-12-20T03:30:26;0.50;99.90
29341;DHT22;16337;59.536;13.468;2022-12-20T03:32:51;0.50;99.90
29341;DHT22;16337;59.536;13.468;2022-12-20T03:35:18;0.50;99.90
29341;DHT22;16337;59.536;13.468;2022-12-20T03:37:43;0.50;99.90
29341;DHT22;16337;59.536;13.468;2022-12-20T03:40:09;0.50;99.90
29341;DHT22;16337;59.536;13.468;2022-12-20T03:42:36;0.50;99.90
29341;DHT22;16337;59.536;13.468;2022-12-20T03:45:02;0.50;99.90
29341;DHT22;16337;59.536;13.468;2022-12-20T03:47:28;0.50;99.90
29341;DHT22;16337;59.536;13.468;2022-12-20T03:49:54;0.50;99.90
29341;DHT22;16337;59.536;13.468;2022-12-20T03:52:20;0.50;99.90
29341;DHT22;16337;59.536;13.468;2022-12-20T03:54:45;0.50;99.90
29341;DHT22;16337;59.536;13.468;2022-12-20T03:57:11;0.50;99.90
29341;DHT22;16337;59.536;13.468;2022-12-20T03:59:37;0.50;99.90
29341;DHT22;16337;59.536;13.468;2022-12-20T04:02:03;0.50;99.90
29341;DHT22;16337;59.536;13.468;2022-12-20T04:04:29;0.50;99.90
29341;DHT22;16337;59.536;13.468;2022-12-20T04:06:55;0.50;99.90
29341;DHT22;16337;59.536;13.468;2022-12-20T04:09:21;0.50;99.90
29341;DHT22;16337;59.536;13.468;2022-12-20T04:11:47;0.50;99.90
29341;DHT22;16337;59.536;13.468;2022-12-20T04:14:13;0.60;99.90
29341;DHT22;16337;59.536;13.468;2022-12-20T04:16:38;0.50;99.90
29341;DHT22;16337;59.536;13.468;2022-12-20T04:19:04;0.50;99.90
29341;DHT22;16337;59.536;13.468;2022-12-20T04:21:32;0.60;99.90
29341;DHT22;16337;59.536;13.468;2022-12-20T04:23:59;0.60;99.90
29341;DHT22;16337;59.536;13.468;2022-12-20T04:26:25;0.60;99.90
29341;DHT22;16337;59.536;13.468;2022-12-20T04:28:51;0.60;99.90
29341;DHT22;16337;59.536;13.468;2022-12-20T04:31:17;0.60;99.90
29341;DHT22;16337;59.536;13.468;2022-12-20T04:33:43;0.60;99.90
29341;DHT22;16337;59.536;13.468;2022-12-20T04:36:09;0.60;99.90
29341;DHT22;16337;59.536;13.468;2022-12-20T04:38:35;0.60;99.90
29341;DHT22;16337;59.536;13.468;2022-12-20T04:41:00;0.60;99.90
29341;DHT22;16337;59.536;13.468;2022-12-20T04:43:26;0.50;99.90
29341;DHT22;16337;59.536;13.468;2022-12-20T04:45:54;0.60;99.90
29341;DHT22;16337;59.536;13.468;2022-12-20T04:48:24;0.60;99.90
29341;DHT22;16337;59.536;13.468;2022-12-20T04:50:54;0.60;99.90
29341;DHT22;16337;59.536;13.468;2022-12-20T04:53:20;0.50;99.90
29341;DHT22;16337;59.536;13.468;2022-12-20T04:56:05;0.60;99.90
29341;DHT22;16337;59.536;13.468;2022-12-20T04:58:31;0.60;99.90
29341;DHT22;16337;59.536;13.468;2022-12-20T05:00:56;0.60;99.90
29341;DHT22;16337;59.536;13.468;2022-12-20T05:03:23;0.60;99.90
29341;DHT22;16337;59.536;13.468;2022-12-20T05:05:49;0.60;99.90
29341;DHT22;16337;59.536;13.468;2022-12-20T05:08:15;0.60;99.90
29341;DHT22;16337;59.536;13.468;2022-12-20T05:10:41;0.60;99.90
29341;DHT22;16337;59.536;13.468;2022-12-20T05:13:07;0.60;99.90
29341;DHT22;16337;59.536;13.468;2022-12-20T05:15:33;0.60;99.90
29341;DHT22;16337;59.536;13.468;2022-12-20T05:17:59;0.60;99.90
29341;DHT22;16337;59.536;13.468;2022-12-20T05:20:25;0.60;99.90
29341;DHT22;16337;59.536;13.468;2022-12-20T05:22:51;0.60;99.90
29341;DHT22;16337;59.536;13.468;2022-12-20T05:25:38;0.60;99.90
29341;DHT22;16337;59.536;13.468;2022-12-20T05:28:22;0.60;99.90
29341;DHT22;16337;59.536;13.468;2022-12-20T05:30:48;0.60;99.90
29341;DHT22;16337;59.536;13.468;2022-12-20T05:33:15;0.60;99.90
29341;DHT22;16337;59.536;13.468;2022-12-20T05:35:41;0.60;99.90
29341;DHT22;16337;59.536;13.468;2022-12-20T05:38:07;0.60;99.90
29341;DHT22;16337;59.536;13.468;2022-12-20T05:40:32;0.50;99.90
29341;DHT22;16337;59.536;13.468;2022-12-20T05:42:58;0.60;99.90
29341;DHT22;16337;59.536;13.468;2022-12-20T05:45:25;0.60;99.90
29341;DHT22;16337;59.536;13.468;2022-12-20T05:47:51;0.60;99.90
29341;DHT22;16337;59.536;13.468;2022-12-20T05:50:16;0.60;99.90
29341;DHT22;16337;59.536;13.468;2022-12-20T05:52:42;0.60;99.90
29341;DHT22;16337;59.536;13.468;2022-12-20T05:55:08;0.60;99.90
29341;DHT22;16337;59.536;13.468;2022-12-20T05:57:35;0.60;99.90
29341;DHT22;16337;59.536;13.468;2022-12-20T06:00:02;0.60;99.90
29341;DHT22;16337;59.536;13.468;2022-12-20T06:02:28;0.60;99.90
29341;DHT22;16337;59.536;13.468;2022-12-20T06:04:54;0.60;99.90
29341;DHT22;16337;59.536;13.468;2022-12-20T06:07:20;0.60;99.90
29341;DHT22;16337;59.536;13.468;2022-12-20T06:09:46;0.60;99.90
29341;DHT22;16337;59.536;13.468;2022-12-20T06:12:12;0.60;99.90
29341;DHT22;16337;59.536;13.468;2022-12-20T06:14:38;0.60;99.90
29341;DHT22;16337;59.536;13.468;2022-12-20T06:17:04;0.60;99.90
29341;DHT22;16337;59.536;13.468;2022-12-20T06:19:30;0.60;99.90
29341;DHT22;16337;59.536;13.468;2022-12-20T06:21:55;0.60;99.90
29341;DHT22;16337;59.536;13.468;2022-12-20T06:24:21;0.60;99.90
29341;DHT22;16337;59.536;13.468;2022-12-20T06:26:50;0.60;99.90
29341;DHT22;16337;59.536;13.468;2022-12-20T06:29:16;0.60;99.90
29341;DHT22;16337;59.536;13.468;2022-12-20T06:31:44;0.60;99.90
29341;DHT22;16337;59.536;13.468;2022-12-20T06:34:10;0.60;99.90
29341;DHT22;16337;59.536;13.468;2022-12-20T06:36:35;0.60;99.90
29341;DHT22;16337;59.536;13.468;2022-12-20T06:39:01;0.60;99.90
29341;DHT22;16337;59.536;13.468;2022-12-20T06:41:27;0.60;99.90
29341;DHT22;16337;59.536;13.468;2022-12-20T06:43:53;0.60;99.90
29341;DHT22;16337;59.536;13.468;2022-12-20T06:46:19;0.60;99.90
29341;DHT22;16337;59.536;13.468;2022-12-20T06:48:44;0.60;99.90
29341;DHT22;16337;59.536;13.468;2022-12-20T06:51:10;0.70;99.90
29341;DHT22;16337;59.536;13.468;2022-12-20T06:53:36;0.70;99.90
29341;DHT22;16337;59.536;13.468;2022-12-20T06:56:02;0.70;99.90
29341;DHT22;16337;59.536;13.468;2022-12-20T06:58:28;0.70;99.90
29341;DHT22;16337;59.536;13.468;2022-12-20T07:00:53;0.70;99.90
29341;DHT22;16337;59.536;13.468;2022-12-20T07:03:19;0.70;99.90
29341;DHT22;16337;59.536;13.468;2022-12-20T07:05:51;0.80;99.90
29341;DHT22;16337;59.536;13.468;2022-12-20T07:08:18;0.80;99.90
29341;DHT22;16337;59.536;13.468;2022-12-20T07:10:43;0.80;99.90
29341;DHT22;16337;59.536;13.468;2022-12-20T07:13:09;0.90;99.90
29341;DHT22;16337;59.536;13.468;2022-12-20T07:15:35;0.90;99.90
29341;DHT22;16337;59.536;13.468;2022-12-20T07:18:01;1.00;99.90
29341;DHT22;16337;59.536;13.468;2022-12-20T07:20:28;1.00;99.90
29341;DHT22;16337;59.536;13.468;2022-12-20T07:22:54;1.00;99.90
29341;DHT22;16337;59.536;13.468;2022-12-20T07:25:19;1.20;99.90
29341;DHT22;16337;59.536;13.468;2022-12-20T07:27:46;1.10;99.90
29341;DHT22;16337;59.536;13.468;2022-12-20T07:30:14;1.10;99.90
29341;DHT22;16337;59.536;13.468;2022-12-20T07:32:40;1.20;99.90
29341;DHT22;16337;59.536;13.468;2022-12-20T07:35:06;1.20;99.90
29341;DHT22;16337;59.536;13.468;2022-12-20T07:37:32;1.20;99.90
29341;DHT22;16337;59.536;13.468;2022-12-20T07:39:58;1.20;99.90
29341;DHT22;16337;59.536;13.468;2022-12-20T07:42:24;1.20;99.90
29341;DHT22;16337;59.536;13.468;2022-12-20T07:44:49;1.20;99.90
29341;DHT22;16337;59.536;13.468;2022-12-20T07:47:15;1.20;99.90
29341;DHT22;16337;59.536;13.468;2022-12-20T07:49:41;1.20;99.90
29341;DHT22;16337;59.536;13.468;2022-12-20T07:52:07;1.20;99.90
29341;DHT22;16337;59.536;13.468;2022-12-20T07:54:37;1.30;99.90
29341;DHT22;16337;59.536;13.468;2022-12-20T07:57:10;1.30;99.90
29341;DHT22;16337;59.536;13.468;2022-12-20T07:59:40;1.30;99.90
29341;DHT22;16337;59.536;13.468;2022-12-20T08:02:14;1.40;99.90
29341;DHT22;16337;59.536;13.468;2022-12-20T08:04:42;1.40;99.90
29341;DHT22;16337;59.536;13.468;2022-12-20T08:07:08;1.40;99.90
29341;DHT22;16337;59.536;13.468;2022-12-20T08:09:38;1.40;99.90
29341;DHT22;16337;59.536;13.468;2022-12-20T08:12:07;1.40;99.90
29341;DHT22;16337;59.536;13.468;2022-12-20T08:14:33;1.40;99.90
29341;DHT22;16337;59.536;13.468;2022-12-20T08:16:59;1.40;99.90
29341;DHT22;16337;59.536;13.468;2022-12-20T08:19:25;1.30;99.90
29341;DHT22;16337;59.536;13.468;2022-12-20T08:21:51;1.30;99.90
29341;DHT22;16337;59.536;13.468;2022-12-20T08:24:16;1.30;99.90
29341;DHT22;16337;59.536;13.468;2022-12-20T08:26:42;1.40;99.90
29341;DHT22;16337;59.536;13.468;2022-12-20T08:29:08;1.50;99.90
29341;DHT22;16337;59.536;13.468;2022-12-20T08:31:38;1.70;99.90
29341;DHT22;16337;59.536;13.468;2022-12-20T08:34:05;1.70;99.90
29341;DHT22;16337;59.536;13.468;2022-12-20T08:36:30;1.70;99.90
29341;DHT22;16337;59.536;13.468;2022-12-20T08:38:56;1.80;99.90
29341;DHT22;16337;59.536;13.468;2022-12-20T08:41:22;1.80;99.90
29341;DHT22;16337;59.536;13.468;2022-12-20T08:43:48;1.80;99.90
29341;DHT22;16337;59.536;13.468;2022-12-20T08:46:13;1.90;99.90
29341;DHT22;16337;59.536;13.468;2022-12-20T08:48:39;2.00;99.90
29341;DHT22;16337;59.536;13.468;2022-12-20T08:51:07;2.00;99.90
29341;DHT22;16337;59.536;13.468;2022-12-20T08:53:34;1.90;99.90
29341;DHT22;16337;59.536;13.468;2022-12-20T08:58:33;1.80;99.90
29341;DHT22;16337;59.536;13.468;2022-12-20T09:01:00;1.80;99.90
29341;DHT22;16337;59.536;13.468;2022-12-20T09:03:29;1.80;99.90
29341;DHT22;16337;59.536;13.468;2022-12-20T09:05:55;1.80;99.90
29341;DHT22;16337;59.536;13.468;2022-12-20T09:08:21;1.80;99.90
29341;DHT22;16337;59.536;13.468;2022-12-20T09:10:47;1.80;99.90
29341;DHT22;16337;59.536;13.468;2022-12-20T09:13:12;1.90;99.90
29341;DHT22;16337;59.536;13.468;2022-12-20T09:15:38;1.90;99.90
29341;DHT22;16337;59.536;13.468;2022-12-20T09:18:04;2.00;99.90
29341;DHT22;16337;59.536;13.468;2022-12-20T09:20:30;2.00;99.90
29341;DHT22;16337;59.536;13.468;2022-12-20T09:22:57;2.00;99.90
29341;DHT22;16337;59.536;13.468;2022-12-20T09:25:24;1.90;99.90
29341;DHT22;16337;59.536;13.468;2022-12-20T09:27:50;1.90;99.90
29341;DHT22;16337;59.536;13.468;2022-12-20T09:30:16;1.90;99.90
29341;DHT22;16337;59.536;13.468;2022-12-20T09:32:42;1.80;99.90
29341;DHT22;16337;59.536;13.468;2022-12-20T09:35:08;1.80;99.90
29341;DHT22;16337;59.536;13.468;2022-12-20T09:37:33;1.90;99.90
29341;DHT22;16337;59.536;13.468;2022-12-20T09:39:59;2.10;99.90
29341;DHT22;16337;59.536;13.468;2022-12-20T09:42:26;2.10;99.90
29341;DHT22;16337;59.536;13.468;2022-12-20T09:45:00;2.20;99.90
29341;DHT22;16337;59.536;13.468;2022-12-20T09:47:28;2.30;99.90
29341;DHT22;16337;59.536;13.468;2022-12-20T09:49:56;2.30;99.90
29341;DHT22;16337;59.536;13.468;2022-12-20T09:57:44;2.40;99.90
29341;DHT22;16337;59.536;13.468;2022-12-20T10:00:14;2.40;99.90
29341;DHT22;16337;59.536;13.468;2022-12-20T10:02:40;2.40;99.90
29341;DHT22;16337;59.536;13.468;2022-12-20T10:05:17;2.40;99.90
29341;DHT22;16337;59.536;13.468;2022-12-20T10:15:37;2.40;99.90
29341;DHT22;16337;59.536;13.468;2022-12-20T10:24:03;2.30;99.90
29341;DHT22;16337;59.536;13.468;2022-12-20T10:26:31;2.40;99.90
29341;DHT22;16337;59.536;13.468;2022-12-20T10:28:57;2.50;99.90
29341;DHT22;16337;59.536;13.468;2022-12-20T10:31:23;2.60;99.90
29341;DHT22;16337;59.536;13.468;2022-12-20T10:33:50;2.50;99.90
29341;DHT22;16337;59.536;13.468;2022-12-20T10:36:36;2.70;99.90
29341;DHT22;16337;59.536;13.468;2022-12-20T10:39:05;2.70;99.90
29341;DHT22;16337;59.536;13.468;2022-12-20T10:46:59;2.60;99.90
29341;DHT22;16337;59.536;13.468;2022-12-20T10:54:42;2.60;99.90
29341;DHT22;16337;59.536;13.468;2022-12-20T10:57:20;2.70;99.90
29341;DHT22;16337;59.536;13.468;2022-12-20T10:59:51;2.70;99.90
29341;DHT22;16337;59.536;13.468;2022-12-20T11:02:33;2.70;99.90
29341;DHT22;16337;59.536;13.468;2022-12-20T11:07:51;2.70;99.90
29341;DHT22;16337;59.536;13.468;2022-12-20T11:10:21;2.70;99.90
29341;DHT22;16337;59.536;13.468;2022-12-20T11:12:59;2.70;99.90
29341;DHT22;16337;59.536;13.468;2022-12-20T11:15:30;2.70;99.90
29341;DHT22;16337;59.536;13.468;2022-12-20T11:18:07;2.70;99.90
29341;DHT22;16337;59.536;13.468;2022-12-20T11:21:16;2.80;99.90
29341;DHT22;16337;59.536;13.468;2022-12-20T11:29:38;2.80;99.90
29341;DHT22;16337;59.536;13.468;2022-12-20T11:32:52;2.80;99.90
29341;DHT22;16337;59.536;13.468;2022-12-20T11:35:13;3.00;99.90
29341;DHT22;16337;59.536;13.468;2022-12-20T11:40:31;3.10;99.90
29341;DHT22;16337;59.536;13.468;2022-12-20T11:43:47;3.10;99.90
29341;DHT22;16337;59.536;13.468;2022-12-20T11:49:10;3.00;99.90
29341;DHT22;16337;59.536;13.468;2022-12-20T11:51:47;3.00;99.90
29341;DHT22;16337;59.536;13.468;2022-12-20T11:54:28;3.00;99.90
29341;DHT22;16337;59.536;13.468;2022-12-20T11:57:06;2.90;99.90
29341;DHT22;16337;59.536;13.468;2022-12-20T11:59:46;2.90;99.90
29341;DHT22;16337;59.536;13.468;2022-12-20T12:02:14;3.00;99.90
29341;DHT22;16337;59.536;13.468;2022-12-20T12:05:04;3.00;99.90
29341;DHT22;16337;59.536;13.468;2022-12-20T12:07:35;2.90;99.90
29341;DHT22;16337;59.536;13.468;2022-12-20T12:10:24;2.80;99.90
29341;DHT22;16337;59.536;13.468;2022-12-20T12:12:57;2.80;99.90
29341;DHT22;16337;59.536;13.468;2022-12-20T12:15:35;2.80;99.90
29341;DHT22;16337;59.536;13.468;2022-12-20T12:18:15;2.80;99.90
29341;DHT22;16337;59.536;13.468;2022-12-20T12:23:29;2.90;99.90
29341;DHT22;16337;59.536;13.468;2022-12-20T12:26:03;2.90;99.90
29341;DHT22;16337;59.536;13.468;2022-12-20T12:28:30;2.80;99.90
29341;DHT22;16337;59.536;13.468;2022-12-20T12:31:03;2.80;99.90
29341;DHT22;16337;59.536;13.468;2022-12-20T12:33:36;2.70;99.90
29341;DHT22;16337;59.536;13.468;2022-12-20T12:47:12;2.80;99.90
29341;DHT22;16337;59.536;13.468;2022-12-20T12:49:40;2.80;99.90
29341;DHT22;16337;59.536;13.468;2022-12-20T12:55:35;2.70;99.90
29341;DHT22;16337;59.536;13.468;2022-12-20T13:03:42;2.70;99.90
29341;DHT22;16337;59.536;13.468;2022-12-20T13:11:34;2.60;99.90
29341;DHT22;16337;59.536;13.468;2022-12-20T13:16:44;2.70;99.90
29341;DHT22;16337;59.536;13.468;2022-12-20T13:19:14;2.60;99.90
29341;DHT22;16337;59.536;13.468;2022-12-20T13:21:43;2.70;99.90
29341;DHT22;16337;59.536;13.468;2022-12-20T13:27:24;2.60;99.90
29341;DHT22;16337;59.536;13.468;2022-12-20T13:30:22;2.60;99.90
29341;DHT22;16337;59.536;13.468;2022-12-20T13:32:58;2.60;99.90
29341;DHT22;16337;59.536;13.468;2022-12-20T13:40:45;2.50;99.90
29341;DHT22;16337;59.536;13.468;2022-12-20T13:43:23;2.50;99.90
29341;DHT22;16337;59.536;13.468;2022-12-20T13:46:21;2.60;99.90
29341;DHT22;16337;59.536;13.468;2022-12-20T13:49:02;2.50;99.90
29341;DHT22;16337;59.536;13.468;2022-12-20T13:51:29;2.80;99.90
29341;DHT22;16337;59.536;13.468;2022-12-20T13:54:04;2.90;99.90
29341;DHT22;16337;59.536;13.468;2022-12-20T13:59:31;3.20;99.90
29341;DHT22;16337;59.536;13.468;2022-12-20T14:02:03;3.20;99.90
29341;DHT22;16337;59.536;13.468;2022-12-20T14:05:05;3.30;99.90
29341;DHT22;16337;59.536;13.468;2022-12-20T14:07:36;3.30;99.90
29341;DHT22;16337;59.536;13.468;2022-12-20T14:10:03;3.20;99.90
29341;DHT22;16337;59.536;13.468;2022-12-20T14:12:44;3.30;99.90
29341;DHT22;16337;59.536;13.468;2022-12-20T14:15:22;3.50;99.90
29341;DHT22;16337;59.536;13.468;2022-12-20T14:17:48;3.50;99.90
29341;DHT22;16337;59.536;13.468;2022-12-20T14:20:16;3.30;99.90
29341;DHT22;16337;59.536;13.468;2022-12-20T14:25:08;3.50;99.90
29341;DHT22;16337;59.536;13.468;2022-12-20T14:27:36;3.50;99.90
29341;DHT22;16337;59.536;13.468;2022-12-20T14:30:04;3.60;99.90
29341;DHT22;16337;59.536;13.468;2022-12-20T14:32:31;3.60;99.90
29341;DHT22;16337;59.536;13.468;2022-12-20T14:34:56;3.60;99.90
29341;DHT22;16337;59.536;13.468;2022-12-20T14:37:25;3.50;99.90
29341;DHT22;16337;59.536;13.468;2022-12-20T14:40:14;3.50;99.90
29341;DHT22;16337;59.536;13.468;2022-12-20T14:42:45;3.50;99.90
29341;DHT22;16337;59.536;13.468;2022-12-20T14:47:38;3.50;99.90
29341;DHT22;16337;59.536;13.468;2022-12-20T14:50:30;3.40;99.90
29341;DHT22;16337;59.536;13.468;2022-12-20T14:52:57;3.30;99.90
29341;DHT22;16337;59.536;13.468;2022-12-20T14:57:56;3.40;99.90
29341;DHT22;16337;59.536;13.468;2022-12-20T15:00:29;3.40;99.90
29341;DHT22;16337;59.536;13.468;2022-12-20T15:08:36;3.20;99.90
29341;DHT22;16337;59.536;13.468;2022-12-20T15:13:42;3.50;99.90
29341;DHT22;16337;59.536;13.468;2022-12-20T15:16:22;3.50;99.90
29341;DHT22;16337;59.536;13.468;2022-12-20T15:18:53;3.60;99.90
29341;DHT22;16337;59.536;13.468;2022-12-20T15:21:29;3.60;99.90
29341;DHT22;16337;59.536;13.468;2022-12-20T15:23:58;3.50;99.90
29341;DHT22;16337;59.536;13.468;2022-12-20T15:26:25;3.40;99.90
29341;DHT22;16337;59.536;13.468;2022-12-20T15:29:01;3.40;99.90
29341;DHT22;16337;59.536;13.468;2022-12-20T15:31:34;3.60;99.90
29341;DHT22;16337;59.536;13.468;2022-12-20T15:34:13;3.50;99.90
29341;DHT22;16337;59.536;13.468;2022-12-20T15:36:42;3.40;99.90
29341;DHT22;16337;59.536;13.468;2022-12-20T15:39:12;3.40;99.90
29341;DHT22;16337;59.536;13.468;2022-12-20T15:41:40;3.40;99.90
29341;DHT22;16337;59.536;13.468;2022-12-20T15:44:13;3.50;99.90
29341;DHT22;16337;59.536;13.468;2022-12-20T15:46:39;3.40;99.90
29341;DHT22;16337;59.536;13.468;2022-12-20T15:49:08;3.40;99.90
29341;DHT22;16337;59.536;13.468;2022-12-20T15:51:36;3.30;99.90
29341;DHT22;16337;59.536;13.468;2022-12-20T15:54:09;3.30;99.90
29341;DHT22;16337;59.536;13.468;2022-12-20T15:56:38;3.30;99.90
29341;DHT22;16337;59.536;13.468;2022-12-20T15:59:04;3.40;99.90
29341;DHT22;16337;59.536;13.468;2022-12-20T16:01:37;3.70;99.90
29341;DHT22;16337;59.536;13.468;2022-12-20T16:04:05;3.80;99.90
29341;DHT22;16337;59.536;13.468;2022-12-20T16:06:31;3.80;99.90
29341;DHT22;16337;59.536;13.468;2022-12-20T16:08:58;3.70;99.90
29341;DHT22;16337;59.536;13.468;2022-12-20T16:11:28;3.60;99.90
29341;DHT22;16337;59.536;13.468;2022-12-20T16:13:58;3.50;99.90
29341;DHT22;16337;59.536;13.468;2022-12-20T16:16:34;3.40;99.90
29341;DHT22;16337;59.536;13.468;2022-12-20T16:19:01;3.40;99.90
29341;DHT22;16337;59.536;13.468;2022-12-20T16:21:34;3.40;99.90
29341;DHT22;16337;59.536;13.468;2022-12-20T16:24:00;3.30;99.90
29341;DHT22;16337;59.536;13.468;2022-12-20T16:26:27;3.40;99.90
29341;DHT22;16337;59.536;13.468;2022-12-20T16:28:54;3.60;99.90
29341;DHT22;16337;59.536;13.468;2022-12-20T16:31:37;3.80;99.90
29341;DHT22;16337;59.536;13.468;2022-12-20T16:34:05;3.90;99.90
29341;DHT22;16337;59.536;13.468;2022-12-20T16:36:32;3.90;99.90
29341;DHT22;16337;59.536;13.468;2022-12-20T16:38:58;3.90;99.90
29341;DHT22;16337;59.536;13.468;2022-12-20T16:41:29;3.70;99.90
29341;DHT22;16337;59.536;13.468;2022-12-20T16:43:57;3.70;99.90
29341;DHT22;16337;59.536;13.468;2022-12-20T16:46:25;3.80;99.90
29341;DHT22;16337;59.536;13.468;2022-12-20T16:48:59;3.80;99.90
29341;DHT22;16337;59.536;13.468;2022-12-20T16:51:31;3.90;99.90
29341;DHT22;16337;59.536;13.468;2022-12-20T16:54:20;4.10;99.90
29341;DHT22;16337;59.536;13.468;2022-12-20T16:56:48;4.10;99.90
29341;DHT22;16337;59.536;13.468;2022-12-20T16:59:20;4.00;99.90
29341;DHT22;16337;59.536;13.468;2022-12-20T17:01:47;4.10;99.90
29341;DHT22;16337;59.536;13.468;2022-12-20T17:04:15;4.20;99.90
29341;DHT22;16337;59.536;13.468;2022-12-20T17:06:42;4.20;99.90
29341;DHT22;16337;59.536;13.468;2022-12-20T17:09:12;4.20;99.90
29341;DHT22;16337;59.536;13.468;2022-12-20T17:11:38;4.20;99.90
29341;DHT22;16337;59.536;13.468;2022-12-20T17:14:04;4.20;99.90
29341;DHT22;16337;59.536;13.468;2022-12-20T17:16:30;4.20;99.90
29341;DHT22;16337;59.536;13.468;2022-12-20T17:18:56;4.20;99.90
29341;DHT22;16337;59.536;13.468;2022-12-20T17:24:02;4.30;99.90
29341;DHT22;16337;59.536;13.468;2022-12-20T17:26:29;4.50;99.90
29341;DHT22;16337;59.536;13.468;2022-12-20T17:28:55;4.40;99.90
29341;DHT22;16337;59.536;13.468;2022-12-20T17:33:52;4.20;99.90
29341;DHT22;16337;59.536;13.468;2022-12-20T17:36:18;4.20;99.90
29341;DHT22;16337;59.536;13.468;2022-12-20T17:38:46;4.20;99.90
29341;DHT22;16337;59.536;13.468;2022-12-20T17:41:27;4.30;99.90
29341;DHT22;16337;59.536;13.468;2022-12-20T17:43:54;4.20;99.90
29341;DHT22;16337;59.536;13.468;2022-12-20T17:46:20;4.20;99.90
29341;DHT22;16337;59.536;13.468;2022-12-20T17:48:46;4.10;99.90